• Join FlightAware (Why Join?)
  • Login
  • US Flag 
10:06AM EST


 

Airport Tracker/Info


-or-


 

Live Flight TrackerFlight Track Log ✈ N80KW ✈ 29-Aug-2013 ✈ KARW - KSPG

Flight Track Log - Related Links

Times and Time Zones

All times are in EDT time to prevent confusion due to time zone crossing. See the N80KW flight status page for this flight to view local times or setup timezone preferences in your user account.

Time Position Orientation Groundspeed Altitude Reporting Facility
EDT Latitude Longitude Course Direction KTS MPH feet Rate Location/Type
11:11AM 31.1206 -81.2739 196° South 178 205 6,600  Level Jacksonville Center
11:12AM 31.0894 -81.2842 196° South 175 201 6,600  Level Jacksonville Center
11:13AM 31.0478 -81.2969 195° South 174 200 6,600 -49 Level Jacksonville Center
11:14AM 30.9958 -81.3197 201° Southwest 173 199 6,500  Descending Jacksonville Center
11:15AM 30.9503 -81.3422 203° Southwest 175 201 6,600  Climbing Jacksonville Center
11:16AM 30.9067 -81.3575 197° South 176 203 6,500 -51 Descending Jacksonville Center
11:17AM 30.8631 -81.3753 199° South 175 201 6,500 49 Level Jacksonville Center
11:18AM 30.8172 -81.3953 201° Southwest 172 198 6,600 47 Climbing Jacksonville Center
11:19AM 30.7653 -81.4178 200° South 171 197 6,600  Level Jacksonville Center
11:20AM 30.7114 -81.4403 200° South 178 205 6,600 -49 Level Jacksonville Center
11:21AM 30.6739 -81.4531 196° South 173 199 6,500 -54 Descending Jacksonville Center
11:22AM 30.6261 -81.4756 202° Southwest 174 200 6,500 52 Level Jacksonville Center
11:23AM 30.5844 -81.4906 197° South 174 200 6,600 49 Climbing Jacksonville Center
11:24AM 30.5347 -81.5106 199° South 174 200 6,600  Level Jacksonville Center
11:25AM 30.4869 -81.5306 200° South 175 201 6,600  Level Jacksonville Center
11:26AM 30.4411 -81.5506 201° Southwest 177 204 6,600 146 Level Jacksonville Center
11:27AM 30.3933 -81.5681 198° South 165 190 6,900 344 Climbing Jacksonville Center
11:28AM 30.3539 -81.5856 201° Southwest 155 178 7,300 393 Climbing Jacksonville Center
11:29AM 30.3122 -81.6053 202° Southwest 154 177 7,700 443 Climbing Jacksonville Center
11:30AM 30.2728 -81.6203 198° South 154 177 8,200 492 Climbing Jacksonville Center
11:31AM 30.2292 -81.6400 201° Southwest 158 182 8,700 148 Climbing Jacksonville Center
11:32AM 30.1833 -81.6597 200° South 178 205 8,500 -98 Descending Jacksonville Center
11:33AM 30.1375 -81.6797 201° Southwest 176 203 8,500  Level Jacksonville Center
11:34AM 30.0875 -81.6947 195° South 173 199 8,500  Level Jacksonville Center
11:35AM 30.0419 -81.7144 201° Southwest 174 200 8,500  Level Jacksonville Center
11:36AM 30.0022 -81.7317 201° Southwest 174 200 8,500  Level Jacksonville Center
11:37AM 29.9567 -81.7492 198° South 175 201 8,500  Level Jacksonville Center
11:38AM 29.9044 -81.7544 185° South 175 201 8,500  Level Jacksonville Center
11:40AM 29.8522 -81.7622 187° South 174 200 8,500  Level Jacksonville Center
11:41AM 29.8042 -81.7606 178° South 174 200 8,500  Level Jacksonville Center
11:42AM 29.7564 -81.7778 197° South 170 196 8,500  Level Jacksonville Center
11:43AM 29.7192 -81.8117 218° Southwest 170 196 8,500  Level Jacksonville Center
11:44AM 29.6858 -81.8358 212° Southwest 170 196 8,500  Level Jacksonville Center
11:45AM 29.6508 -81.8722 222° Southwest 171 197 8,500  Level Jacksonville Center
11:46AM 29.6092 -81.9108 219° Southwest 170 196 8,500  Level Jacksonville Center
11:47AM 29.5656 -81.9447 214° Southwest 170 196 8,500  Level Jacksonville Center
11:48AM 29.5264 -81.9761 215° Southwest 173 199 8,500  Level Jacksonville Center
11:49AM 29.4825 -82.0050 210° Southwest 174 200 8,500  Level Jacksonville Center
11:50AM 29.4431 -82.0317 210° Southwest 173 199 8,500  Level Jacksonville Center
11:51AM 29.4017 -82.0606 211° Southwest 174 200 8,500 49 Level Jacksonville Center
11:52AM 29.3578 -82.0872 208° Southwest 173 199 8,600  Climbing Jacksonville Center
11:53AM 29.3058 -82.1044 196° South 172 198 8,500 -49 Descending Jacksonville Center
11:54AM 29.2622 -82.1214 199° South 173 199 8,500  Level Jacksonville Center
11:55AM 29.2164 -82.1383 198° South 173 199 8,500  Level Jacksonville Center
11:56AM 29.1683 -82.1506 193° South 172 198 8,500  Level Jacksonville Center
11:57AM 29.1225 -82.1675 198° South 170 196 8,500  Level Jacksonville Center
11:58AM 29.0725 -82.1797 192° South 170 196 8,500  Level Jacksonville Center
11:59AM 29.0286 -82.1944 196° South 171 197 8,500  Level Jacksonville Center
12:00PM 28.9828 -82.2114 198° South 172 198 8,500  Level Jacksonville Center
12:01PM 28.9369 -82.2283 198° South 171 197 8,500  Level Jacksonville Center
12:02PM 28.8869 -82.2406 192° South 171 197 8,500  Level Jacksonville Center
12:03PM 28.8392 -82.2597 199° South 171 197 8,500  Level Jacksonville Center
12:05PM 28.7667 -82.2833 196° South 173 199 8,500  Level Tampa TRACON
12:06PM 28.7167 -82.3000 196° South 173 199 8,500  Level Tampa TRACON
12:07PM 28.6667 -82.3167 196° South 170 196 8,500  Level Tampa TRACON
12:08PM 28.6333 -82.3500 221° Southwest 177 204 8,500  Level Tampa TRACON
12:09PM 28.6000 -82.4000 233° Southwest 173 199 8,500  Level Tampa TRACON
12:10PM 28.5833 -82.4333 240° Southwest 171 197 8,500  Level Tampa TRACON
12:11PM 28.5500 -82.4833 233° Southwest 171 197 8,500  Level Tampa TRACON
12:13PM 28.4696 -82.4981 189° South  Level Estimated
12:20PM 28.1387 -82.5589 189° South  Level Estimated
12:21PM 28.0914 -82.5675 189° South  Level Estimated
12:22PM 28.0441 -82.5762 189° South  Level Estimated
12:23PM 27.9968 -82.5848 189° South  Level Estimated
12:24PM 27.9496 -82.5934 189° South  Level Estimated
12:25PM 27.9023 -82.6020 189° South  Level Estimated
12:26PM 27.8550 -82.6106 189° South  Level Estimated
12:27PM 27.8077 -82.6192 189° South  Level Estimated
12:28PM 27.7651 -82.6270 189° South  Level Estimated
12:29PM 27.7651 -82.6270 299° West  Level Estimated
12:30PM 27.7651 -82.6270 299° West  Level Estimated
12:31PM 27.7651 -82.6270 299° West  Level Estimated
12:32PM 27.7651 -82.6270 299° West  Level Estimated
12:33PM 27.7651 -82.6270 299° West  Level Estimated
12:34PM 27.7651 -82.6270 299° West  Level Estimated
12:35PM 27.7651 -82.6270 299° West  Level Estimated
12:36PM 27.7651 -82.6270 299° West  Level Estimated
12:37PM 27.7651 -82.6270 299° West  Level Estimated
12:38PM 27.7651 -82.6270 299° West  Level Estimated